Hilversum Aerodrome

EHHV · Hollande-Septentrionale, Pays-Bas

6 octobre 2022

Temps Code Temps Temp. Vue Base cloud Vent METAR/SPECI
14:55
V
16 °C 10 km+ - 260° 260° 10 kt METAR EHDL 061255Z AUTO 26010KT 180V290 9999 SCT033 16/08 Q1029 BLU
14:25
V
16 °C 10 km+ 3.800 ft 260° 260° 9 kt METAR EHDL 061225Z AUTO 26009KT 170V320 9999 SCT033 BKN038 16/09 Q1029 BLU
13:55
V
16 °C 10 km+ - 240° 240° 12 kt METAR EHDL 061155Z AUTO 24012KT 160V320 9999 NCD 16/08 Q1029 BLU
13:25
V
16 °C 10 km+ 3.100 ft 240° 240° 12 kt METAR EHDL 061125Z AUTO 24012KT 180V310 9999 BKN031 16/09 Q1029 BLU
12:55
L
16 °C 0 m 2.900 ft 230° 230° 15 kt METAR EHDL 061055Z AUTO 23015KT 220V350 //// // BKN029 BKN032 16/09 Q1029
12:25
V
15 °C 10 km+ - 250° 250° 10 kt METAR EHDL 061025Z AUTO 25010KT 180V300 9999 SCT028 15/09 Q1029 RE// BLU
11:55
L
15 °C 0 m 2.900 ft 240° 240° 13 kt METAR EHDL 060955Z AUTO 24013KT 150V320 //// // SCT026 BKN029 15/09 Q1029 RE//
11:25
L
15 °C 0 m - 240° 240° 11 kt METAR EHDL 060925Z AUTO 24011KT 170V300 //// // FEW024 15/10 Q1028 RE//
10:55
L
14 °C 0 m - 240° 240° 10 kt METAR EHDL 060855Z AUTO 24010KT 160V310 //// // NCD 14/09 Q1028 RE//
10:25
V
13 °C 10 km+ - 230° 230° 8 kt METAR EHDL 060825Z AUTO 23008KT 150V280 9999 NCD 13/09 Q1028 BLU
09:55
V
12 °C 10 km+ - 220° 220° 8 kt METAR EHDL 060755Z AUTO 22008KT 170V300 9999 NCD 12/10 Q1027 BLU
09:25
V
11 °C 10 km+ - 220° 220° 8 kt METAR EHDL 060725Z AUTO 22008KT 160V310 9999 NCD 11/09 Q1027 BLU
08:55
V
10 °C 10 km+ - 210° 210° 8 kt METAR EHDL 060655Z AUTO 21008KT 150V300 9999 NCD 10/09 Q1026 BLU
08:25
V
10 °C 10 km+ - 210° 210° 6 kt METAR EHDL 060625Z AUTO 21006KT 140V240 9999 NCD 10/08 Q1026 BLU
07:55
V
9 °C 10 km+ - 210° 210° 6 kt METAR EHDL 060555Z AUTO 21006KT 140V260 9999 NCD 09/08 Q1025 BLU
07:25
V
9 °C 10 km+ - 220° 220° 7 kt METAR EHDL 060525Z AUTO 22007KT 160V260 9999 NCD 09/08 Q1025 BLU
06:55
V
10 °C 10 km+ - 220° 220° 7 kt METAR EHDL 060455Z AUTO 22007KT 170V270 9999 NCD 10/08 Q1025 BLU
06:25
V
10 °C 10 km+ - 220° 220° 7 kt METAR EHDL 060425Z AUTO 22007KT 160V270 9999 FEW033 SCT040 10/08 Q1024 BLU
05:55
V
10 °C 10 km+ - 210° 210° 7 kt METAR EHDL 060355Z AUTO 21007KT 150V270 9999 NCD 10/08 Q1024 BLU
05:25
V
10 °C 10 km+ - 230° 230° 7 kt METAR EHDL 060325Z AUTO 23007KT 170V290 9999 NCD 10/08 Q1023 BLU
04:55
V
11 °C 10 km+ - 220° 220° 9 kt METAR EHDL 060255Z AUTO 22009KT 170V280 9999 NCD 11/09 Q1023 BLU
04:25
V
11 °C 10 km+ - 220° 220° 8 kt METAR EHDL 060225Z AUTO 22008KT 160V270 9999 FEW260 11/09 Q1022 BLU
03:55
V
12 °C 10 km+ 3.400 ft 230° 230° 8 kt METAR EHDL 060155Z AUTO 23008KT 170V280 9999 BKN034 BKN039 OVC043 12/10 Q1022 BLU
03:25
V
12 °C 10 km+ - 230° 230° 9 kt METAR EHDL 060125Z AUTO 23009KT 160V320 9999 SCT034 12/10 Q1021 BLU
02:55
V
12 °C 10 km+ 4.400 ft 230° 230° 10 kt METAR EHDL 060055Z AUTO 23010KT 150V310 9999 SCT031 SCT035 BKN044 12/10 Q1021 BLU
02:25
V
12 °C 10 km+ - 220° 220° 8 kt METAR EHDL 060025Z AUTO 22008KT 150V270 9999 FEW044 SCT055 12/11 Q1020 BLU
01:55
V
12 °C 10 km+ - 230° 230° 8 kt METAR EHDL 052355Z AUTO 23008KT 160V300 9999 FEW033 12/11 Q1020 BLU
01:25
V
13 °C 10 km+ - 230° 230° 10 kt METAR EHDL 052325Z AUTO 23010KT 180V280 9999 NCD 13/12 Q1019 BLU
00:55
V
13 °C 10 km+ - 230° 230° 8 kt METAR EHDL 052255Z AUTO 23008KT 160V300 9999 FEW024 SCT028 13/12 Q1019 BLU
00:25
V
13 °C 10 km+ 6.600 ft 230° 230° 7 kt METAR EHDL 052225Z AUTO 23007KT 170V290 9999 FEW007 FEW015CB SCT034 BKN066 13/12 Q1018 REDZ BLU

5 octobre 2022

Temps Code Temps Temp. Vue Base cloud Vent METAR/SPECI
23:55
M
13 °C 10 km+ 2.200 ft 270° 270° 10 - 21 kt METAR EHDL 052155Z AUTO 27010G21KT 160V330 9999 DZ FEW009 SCT014 BKN022 13/12 Q1018 GRN
23:25
V
13 °C 10 km+ 4.200 ft 250° 250° 8 kt METAR EHDL 052125Z AUTO 25008KT 200V320 9999 DZRA FEW036 BKN042 OVC047 13/12 Q1017 BLU
22:55
V
14 °C 10 km+ 3.000 ft 260° 260° 12 kt METAR EHDL 052055Z AUTO 26012KT 210V310 9999 -RADZ FEW015CB BKN030 OVC035 14/11 Q1017 BLU
22:25
M
17 °C 10 km+ 2.400 ft 230° 230° 15 kt METAR EHDL 052025Z AUTO 23015KT 150V300 9999 FEW016CB OVC024 17/13 Q1015 WHT
21:55
M
18 °C 10 km+ 2.600 ft 210° 210° 15 kt METAR EHDL 051955Z AUTO 21015KT 150V290 9999 BKN026 OVC029 18/12 Q1015 BLU
21:25
M
17 °C 10 km+ 2.700 ft 200° 200° 15 kt METAR EHDL 051925Z AUTO 20015KT 120V260 9999 BKN027 OVC031 17/12 Q1014 BLU
20:55
M
17 °C 10 km+ 2.800 ft 200° 200° 15 kt METAR EHDL 051855Z AUTO 20015KT 120V260 9999 OVC028 17/12 Q1014 BLU
20:25
M
17 °C 10 km+ 2.900 ft 200° 200° 15 kt METAR EHDL 051825Z AUTO 20015KT 130V270 9999 FEW018 OVC029 17/11 Q1014 BLU
19:55
M
17 °C 10 km+ 2.900 ft 200° 200° 16 kt METAR EHDL 051755Z AUTO 20016KT 130V270 9999 BKN029 OVC033 17/11 Q1014 BLU
19:25
M
17 °C 10 km+ 2.700 ft 210° 210° 14 kt METAR EHDL 051725Z AUTO 21014KT 130V270 9999 OVC027 17/11 Q1014 BLU
18:55
M
17 °C 10 km+ 2.800 ft 210° 210° 16 kt METAR EHDL 051655Z AUTO 21016KT 120V270 9999 OVC028 17/11 Q1013 BLU
18:25
V
17 °C 10 km+ 3.000 ft 220° 220° 16 kt METAR EHDL 051625Z AUTO 22016KT 120V290 9999 FEW025 BKN030 OVC034 17/10 Q1013 BLU
17:55
V
18 °C 10 km+ 4.000 ft 230° 230° 18 kt METAR EHDL 051555Z AUTO 23018KT 160V300 9999 FEW029 BKN040 BKN045 18/12 Q1013 BLU
17:25
V
19 °C 10 km+ 3.600 ft 240° 240° 15 kt METAR EHDL 051525Z AUTO 24015KT 180V310 9999 FEW031 BKN036 OVC042 19/12 Q1012 BLU
16:55
V
19 °C 10 km+ 4.200 ft 220° 220° 13 kt METAR EHDL 051455Z AUTO 22013KT 160V300 9999 FEW032 SCT038 BKN042 19/12 Q1012 BLU
16:25
V
20 °C 10 km+ 3.700 ft 230° 230° 13 kt METAR EHDL 051425Z AUTO 23013KT 150V270 9999 SCT031 BKN037 20/13 Q1012 BLU
15:55
V
20 °C 10 km+ 3.200 ft 220° 220° 13 kt METAR EHDL 051355Z AUTO 22013KT 170V290 9999 SCT027 BKN032 BKN037 20/13 Q1012 BLU
15:25
V
20 °C 10 km+ 3.000 ft 220° 220° 13 kt METAR EHDL 051325Z AUTO 22013KT 140V280 9999 FEW026 BKN030 BKN034 20/13 Q1012 BLU
14:55
M
19 °C 10 km+ 2.900 ft Var Var 15 kt METAR EHDL 051255Z AUTO VRB15KT 9999 SCT025 OVC029 19/13 Q1012 BLU
14:25
M
18 °C 10 km+ 2.800 ft Var Var 13 kt METAR EHDL 051225Z AUTO VRB13KT 9999 SCT024 OVC028 18/12 Q1013 WHT
13:55
M
18 °C 10 km+ 2.700 ft 210° 210° 15 kt METAR EHDL 051155Z AUTO 21015KT 130V280 9999 SCT023 BKN027 OVC030 18/12 Q1013 WHT
13:25
M
17 °C 10 km+ 2.300 ft 210° 210° 16 kt METAR EHDL 051125Z AUTO 21016KT 150V270 9999 BKN023 OVC027 17/12 Q1013 WHT
12:55
M
17 °C 10 km+ 2.500 ft 200° 200° 18 kt METAR EHDL 051055Z AUTO 20018KT 130V270 9999 SCT022 OVC025 17/12 Q1013 WHT
12:25
M
17 °C 10 km+ 2.500 ft 190° 190° 14 kt METAR EHDL 051025Z AUTO 19014KT 120V260 9999 SCT022 BKN025 OVC029 17/12 Q1014 WHT
11:55
M
16 °C 10 km+ 2.500 ft 200° 200° 12 kt METAR EHDL 050955Z AUTO 20012KT 120V250 9999 FEW021 OVC025 16/12 Q1014 BLU
11:25
M
16 °C 10 km+ 2.400 ft 200° 200° 11 kt METAR EHDL 050925Z AUTO 20011KT 130V270 9999 BKN024 OVC027 16/11 Q1014 WHT
10:55
M
15 °C 10 km+ 2.400 ft 210° 210° 11 kt METAR EHDL 050855Z AUTO 21011KT 140V290 9999 OVC024 15/11 Q1014 WHT
10:25
M
15 °C 10 km+ 2.300 ft 190° 190° 10 kt METAR EHDL 050825Z AUTO 19010KT 120V250 9999 OVC023 15/11 Q1015 WHT
09:55
M
15 °C 10 km+ 2.600 ft 200° 200° 10 kt METAR EHDL 050755Z AUTO 20010KT 130V250 9999 OVC026 15/11 Q1015 BLU
09:25
M
15 °C 10 km+ 2.700 ft 200° 200° 11 kt METAR EHDL 050725Z AUTO 20011KT 130V260 9999 OVC027 15/11 Q1015 BLU
08:55
M
14 °C 10 km+ 2.600 ft 200° 200° 10 kt METAR EHDL 050655Z AUTO 20010KT 130V260 9999 OVC026 14/11 Q1015 BLU
08:25
M
14 °C 10 km+ 2.200 ft 200° 200° 10 kt METAR EHDL 050625Z AUTO 20010KT 130V250 9999 OVC022 14/11 Q1015 WHT
07:55
M
14 °C 10 km+ 2.300 ft 190° 190° 8 kt METAR EHDL 050555Z AUTO 19008KT 130V280 9999 OVC023 14/11 Q1015 WHT
07:25
M
14 °C 10 km+ 2.300 ft 200° 200° 9 kt METAR EHDL 050525Z AUTO 20009KT 140V260 9999 OVC023 14/11 Q1015 WHT
06:55
M
14 °C 10 km+ 2.500 ft 200° 200° 7 kt METAR EHDL 050455Z AUTO 20007KT 140V260 9999 SCT022 OVC025 14/11 Q1015 WHT
06:25
M
14 °C 10 km+ 2.400 ft 200° 200° 9 kt METAR EHDL 050425Z AUTO 20009KT 130V260 9999 BKN024 OVC027 14/11 Q1015 WHT
05:55
M
14 °C 10 km+ 2.500 ft 190° 190° 8 kt METAR EHDL 050355Z AUTO 19008KT 140V260 9999 OVC025 14/11 Q1015 BLU
05:25
V
14 °C 10 km+ 3.000 ft 190° 190° 8 kt METAR EHDL 050325Z AUTO 19008KT 130V250 9999 OVC030 14/11 Q1015 BLU
04:55
V
14 °C 10 km+ 3.200 ft 190° 190° 8 kt METAR EHDL 050255Z AUTO 19008KT 130V260 9999 SCT025 OVC032 14/12 Q1015 BLU
04:25
V
14 °C 10 km+ 3.300 ft 190° 190° 8 kt METAR EHDL 050225Z AUTO 19008KT 120V240 9999 BKN033 OVC190 14/11 Q1016 BLU
03:55
M
15 °C 10 km+ 2.800 ft 190° 190° 8 kt METAR EHDL 050155Z AUTO 19008KT 130V240 9999 BKN028 OVC035 15/11 Q1016 BLU
03:25
V
15 °C 10 km+ 3.600 ft 190° 190° 8 kt METAR EHDL 050125Z AUTO 19008KT 120V250 9999 OVC036 15/11 Q1016 BLU
02:55
M
15 °C 10 km+ 2.800 ft 210° 210° 7 kt METAR EHDL 050055Z AUTO 21007KT 140V250 9999 BKN028 OVC035 15/11 Q1017 BLU
02:25
V
15 °C 10 km+ 3.300 ft 200° 200° 7 kt METAR EHDL 050025Z AUTO 20007KT 140V260 9999 OVC033 15/11 Q1017 BLU
01:55
V
15 °C 10 km+ 3.200 ft 200° 200° 7 kt METAR EHDL 042355Z AUTO 20007KT 140V250 9999 OVC032 15/11 Q1017 BLU
01:25
V
15 °C 10 km+ 3.000 ft 190° 190° 7 kt METAR EHDL 042325Z AUTO 19007KT 120V240 9999 BKN030 OVC034 15/11 Q1017 BLU
00:55
V
15 °C 10 km+ 3.300 ft 210° 210° 7 kt METAR EHDL 042255Z AUTO 21007KT 150V280 9999 OVC033 15/11 Q1017 BLU
00:25
V
15 °C 10 km+ 3.100 ft 210° 210° 7 kt METAR EHDL 042225Z AUTO 21007KT 130V260 9999 OVC031 15/11 Q1017 BLU

4 octobre 2022

Temps Code Temps Temp. Vue Base cloud Vent METAR/SPECI
23:55
V
15 °C 10 km+ 3.100 ft 210° 210° 7 kt METAR EHDL 042155Z AUTO 21007KT 150V270 9999 SCT026 OVC031 15/11 Q1018 BLU
23:25
V
15 °C 10 km+ 3.200 ft 200° 200° 9 kt METAR EHDL 042125Z AUTO 20009KT 120V270 9999 OVC032 15/11 Q1017 BLU
22:55
V
15 °C 10 km+ 3.100 ft 200° 200° 8 kt METAR EHDL 042055Z AUTO 20008KT 140V270 9999 OVC031 15/11 Q1018 BLU
22:25
V
15 °C 10 km+ 3.000 ft 200° 200° 8 kt METAR EHDL 042025Z AUTO 20008KT 140V260 9999 OVC030 15/11 Q1017 BLU
21:55
M
16 °C 10 km+ 2.900 ft 190° 190° 9 kt METAR EHDL 041955Z AUTO 19009KT 120V250 9999 OVC029 16/11 Q1017 BLU
21:25
V
16 °C 10 km+ 3.200 ft 190° 190° 8 kt METAR EHDL 041925Z AUTO 19008KT 120V240 9999 BKN032 OVC036 16/11 Q1018 BLU
20:55
V
15 °C 10 km+ 3.700 ft 190° 190° 7 kt METAR EHDL 041855Z AUTO 19007KT 130V230 9999 OVC037 15/11 Q1018 BLU
20:25
V
14 °C 10 km+ 4.000 ft 180° 180° 5 kt METAR EHDL 041825Z AUTO 18005KT 130V210 9999 OVC040 14/11 Q1018 BLU
19:55
V
14 °C 10 km+ 3.900 ft 180° 180° 5 kt METAR EHDL 041755Z AUTO 18005KT 130V210 9999 FEW032 BKN039 BKN240 14/10 Q1018 BLU
19:25
V
14 °C 10 km+ 28.000 ft 190° 190° 4 kt METAR EHDL 041725Z AUTO 19004KT 130V200 9999 FEW035 OVC280 14/10 Q1018 BLU
18:55
V
16 °C 10 km+ 26.000 ft 190° 190° 5 kt METAR EHDL 041655Z AUTO 19005KT 140V230 9999 BKN260 OVC310 16/10 Q1018 BLU
18:25
V
17 °C 10 km+ 28.000 ft 200° 200° 5 kt METAR EHDL 041625Z AUTO 20005KT 140V230 9999 OVC280 17/10 Q1018 BLU
17:55
V
17 °C 10 km+ 27.000 ft 190° 190° 8 kt METAR EHDL 041555Z AUTO 19008KT 130V260 9999 OVC270 17/10 Q1018 BLU
17:25
V
18 °C 10 km+ 29.000 ft 210° 210° 6 kt METAR EHDL 041525Z AUTO 21006KT 130V260 9999 OVC290 18/10 Q1018 BLU
16:55
V
18 °C 10 km+ 30.000 ft 210° 210° 9 kt METAR EHDL 041455Z AUTO 21009KT 140V260 9999 OVC300 18/10 Q1018 BLU
16:25
V
18 °C 10 km+ 36.000 ft 200° 200° 10 kt METAR EHDL 041425Z AUTO 20010KT 130V260 9999 OVC360 18/09 Q1018 BLU
15:55
V
18 °C 10 km+ 21.000 ft 220° 220° 13 kt METAR EHDL 041355Z AUTO 22013KT 130V270 9999 BKN210 BKN370 18/09 Q1018 BLU
15:25
V
18 °C 10 km+ 20.000 ft 190° 190° 10 kt METAR EHDL 041325Z AUTO 19010KT 120V290 9999 OVC200 18/09 Q1019 BLU
14:55
V
17 °C 10 km+ 20.000 ft 200° 200° 10 kt METAR EHDL 041255Z AUTO 20010KT 130V270 9999 OVC200 17/10 Q1019 BLU
Données plus anciennes

Nous et des tiers suivons ton comportement sur Internet sur notre site Web à l'aide de cookies. Si tu continues, nous supposons que tu acceptes notre politique en matière de cookies. Apprendre plus